Time;durP1;ratioP1;P1;durP2;ratioP2;P2;SDS_P1;SDS_P2;PMS_P1;PMS_P2;Temp;Humidity;BMP_temperature;BMP_pressure;BME280_temperature;BME280_humidity;BME280_pressure;Samples;Min_cycle;Max_cycle;Signal;HPM_P1;HPM_P2
2023/01/17 00:02:08;;;;;;;3.33;1.77;;;;;;;2.56;100.00;97769.22;4960023;28;20530;-79
2023/01/17 00:10:12;;;;;;;1.90;1.40;;;;;;;2.66;100.00;97789.84;4928815;28;20063;-81
2023/01/17 00:12:49;;;;;;;1.05;1.00;;;;;;;2.67;100.00;97783.78;4924520;28;20050;-80
2023/01/17 00:15:18;;;;;;;2.63;1.00;;;;;;;2.71;100.00;97782.00;4948332;28;20609;-79
2023/01/17 00:17:46;;;;;;;4.32;1.02;;;;;;;2.73;100.00;97786.28;4926833;29;20051;-79
2023/01/17 00:26:11;;;;;;;1.63;0.70;;;;;;;2.76;100.00;97790.59;4947652;28;20051;-80
2023/01/17 01:33:45;;;;;;;3.75;0.93;;;;;;;2.66;100.00;97916.38;4970067;28;20051;-78
2023/01/17 01:36:12;;;;;;;8.52;1.33;;;;;;;2.67;100.00;97921.56;4950550;28;20057;-79
2023/01/17 01:38:39;;;;;;;5.65;1.02;;;;;;;2.67;100.00;97926.78;4932931;29;20495;-80
2023/01/17 01:41:07;;;;;;;3.80;0.80;;;;;;;2.69;100.00;97929.38;4942795;28;20571;-80
2023/01/17 01:43:54;;;;;;;4.63;1.30;;;;;;;2.71;100.00;97935.41;4941994;28;20043;-80
2023/01/17 01:46:38;;;;;;;4.22;0.85;;;;;;;2.75;100.00;97939.69;4934797;28;20038;-79
2023/01/17 01:49:19;;;;;;;2.72;0.80;;;;;;;2.76;100.00;97954.41;4953481;28;20055;-79
2023/01/17 01:51:53;;;;;;;5.75;1.02;;;;;;;2.76;100.00;97945.72;4959046;28;20051;-79
2023/01/17 01:54:46;;;;;;;4.80;1.13;;;;;;;2.77;100.00;97955.28;4962914;28;20050;-80
2023/01/17 01:57:17;;;;;;;2.95;0.90;;;;;;;2.75;100.00;97954.44;4952501;28;20071;-80
2023/01/17 01:59:51;;;;;;;2.53;0.90;;;;;;;2.72;100.00;97955.31;4943519;28;20064;-80
2023/01/17 02:02:18;;;;;;;5.75;0.93;;;;;;;2.73;100.00;97965.69;4931907;29;20105;-80
2023/01/17 02:04:47;;;;;;;7.20;1.00;;;;;;;2.74;100.00;97963.94;4957607;28;20055;-80
2023/01/17 02:07:22;;;;;;;9.07;1.17;;;;;;;2.79;100.00;97974.31;4947951;28;20396;-80
2023/01/17 02:10:16;;;;;;;7.10;1.00;;;;;;;2.82;100.00;98002.91;4960924;28;20051;-82
2023/01/17 02:12:45;;;;;;;4.15;1.08;;;;;;;2.78;100.00;97993.38;4925892;29;20047;-80
2023/01/17 02:15:13;;;;;;;3.10;0.73;;;;;;;2.72;100.00;97986.50;4929935;28;20043;-79
2023/01/17 02:17:52;;;;;;;3.45;0.80;;;;;;;2.63;100.00;98003.09;4958576;28;20050;-79
2023/01/17 02:21:02;;;;;;;3.78;1.00;;;;;;;2.56;100.00;98010.97;4963443;28;20031;-79
2023/01/17 02:23:37;;;;;;;3.95;0.90;;;;;;;2.57;100.00;98004.88;4967624;28;20062;-79
2023/01/17 02:26:16;;;;;;;2.95;0.98;;;;;;;2.56;100.00;98006.63;4936323;29;20066;-80
2023/01/17 02:29:17;;;;;;;3.15;1.00;;;;;;;2.56;100.00;98011.81;4961443;28;20070;-79
2023/01/17 02:31:51;;;;;;;9.45;2.38;;;;;;;2.53;100.00;98017.94;4918541;28;20046;-79
2023/01/17 02:34:27;;;;;;;7.32;1.02;;;;;;;2.56;100.00;98023.97;4951132;28;20039;-79
2023/01/17 02:37:02;;;;;;;6.93;1.58;;;;;;;2.58;100.00;98024.81;4948708;28;20504;-79
2023/01/17 02:39:39;;;;;;;9.02;1.90;;;;;;;2.63;100.00;98033.44;4959635;28;20047;-79
2023/01/17 02:42:15;;;;;;;7.97;1.33;;;;;;;2.66;100.00;98023.00;4956608;28;20051;-79
2023/01/17 02:44:43;;;;;;;8.15;2.05;;;;;;;2.69;100.00;98028.16;4964585;28;20039;-80
2023/01/17 02:47:21;;;;;;;12.48;1.70;;;;;;;2.73;100.00;98033.31;4936858;28;20055;-80
2023/01/17 02:49:51;;;;;;;7.18;1.67;;;;;;;2.75;100.00;98033.31;4968321;28;20050;-80
2023/01/17 02:52:33;;;;;;;8.50;1.38;;;;;;;2.80;100.00;98033.22;4958870;28;20043;-80
2023/01/17 02:55:20;;;;;;;10.20;1.75;;;;;;;2.83;100.00;98043.63;4964730;28;20047;-79
2023/01/17 02:58:12;;;;;;;11.60;2.03;;;;;;;2.85;100.00;98044.47;4953779;28;20053;-80
2023/01/17 03:00:47;;;;;;;8.75;2.47;;;;;;;2.86;100.00;98056.59;4957625;28;20051;-79
2023/01/17 03:03:21;;;;;;;10.38;1.95;;;;;;;2.87;100.00;98060.91;4910885;28;20046;-78
2023/01/17 03:05:50;;;;;;;7.18;1.55;;;;;;;2.88;100.00;98066.09;4943315;28;20420;-79
2023/01/17 03:08:18;;;;;;;8.10;1.77;;;;;;;2.91;100.00;98076.47;4949553;28;20547;-79
2023/01/17 03:10:46;;;;;;;6.88;1.08;;;;;;;2.92;100.00;98073.00;4921942;28;20043;-80
2023/01/17 03:13:13;;;;;;;6.80;2.05;;;;;;;2.96;100.00;98079.03;4953719;28;20053;-79
2023/01/17 03:15:40;;;;;;;6.32;1.58;;;;;;;2.99;100.00;98081.59;4969986;28;20050;-79
2023/01/17 03:18:12;;;;;;;4.97;1.30;;;;;;;3.00;100.00;98091.13;4966888;28;20078;-78
2023/01/17 03:20:40;;;;;;;8.52;1.30;;;;;;;3.02;100.00;98109.31;4929354;28;20047;-78
2023/01/17 03:23:08;;;;;;;7.07;1.38;;;;;;;3.00;100.00;98087.66;4955367;28;20046;-79
2023/01/17 03:25:35;;;;;;;3.08;1.00;;;;;;;3.01;100.00;98100.66;4941186;28;20054;-80
2023/01/17 03:28:03;;;;;;;12.13;1.40;;;;;;;3.03;100.00;98106.69;4951844;29;20047;-79
2023/01/17 03:30:30;;;;;;;7.93;1.20;;;;;;;3.05;100.00;98104.09;4920926;28;20039;-80
2023/01/17 03:32:57;;;;;;;9.90;2.38;;;;;;;3.07;100.00;98099.72;4944658;28;20049;-80
2023/01/17 03:35:25;;;;;;;6.85;1.23;;;;;;;3.07;100.00;98111.00;4909024;28;20066;-80
2023/01/17 03:37:52;;;;;;;5.45;1.10;;;;;;;3.07;100.00;98108.38;4961041;28;20051;-80
2023/01/17 03:40:19;;;;;;;3.85;1.60;;;;;;;3.08;100.00;98114.44;4954783;28;20433;-80
2023/01/17 03:42:46;;;;;;;6.45;1.30;;;;;;;3.07;100.00;98121.41;4949831;28;20036;-80
2023/01/17 03:45:15;;;;;;;6.10;1.80;;;;;;;3.07;100.00;98128.34;4946732;29;20047;-80
2023/01/17 03:47:42;;;;;;;7.10;1.92;;;;;;;3.08;100.00;98130.06;4931059;28;20077;-80
2023/01/17 03:50:11;;;;;;;9.60;2.05;;;;;;;3.06;100.00;98139.63;4899175;28;20051;-80
2023/01/17 03:52:38;;;;;;;9.15;2.42;;;;;;;3.04;100.00;98150.03;4931628;28;20062;-79
2023/01/17 03:55:06;;;;;;;5.60;1.30;;;;;;;2.99;100.00;98146.66;4972523;28;20053;-79
2023/01/17 03:57:33;;;;;;;6.03;1.35;;;;;;;2.92;100.00;98147.56;4952467;28;20055;-79
2023/01/17 04:00:01;;;;;;;3.88;1.08;;;;;;;2.87;100.00;98154.53;4924111;28;20051;-79
2023/01/17 04:02:33;;;;;;;13.68;1.50;;;;;;;2.80;100.00;98158.06;4948819;28;20070;-79
2023/01/17 04:05:00;;;;;;;9.65;2.00;;;;;;;2.78;100.00;98163.31;4954212;28;20057;-80
2023/01/17 04:07:27;;;;;;;3.35;1.00;;;;;;;2.77;100.00;98173.72;4917740;28;20098;-81
2023/01/17 04:09:55;;;;;;;8.35;1.52;;;;;;;2.76;100.00;98178.06;4953762;28;20055;-78
2023/01/17 04:12:22;;;;;;;5.18;1.23;;;;;;;2.76;100.00;98177.19;4937470;28;20051;-80
2023/01/17 04:14:49;;;;;;;5.93;1.42;;;;;;;2.73;100.00;98186.72;4958508;28;20508;-79
2023/01/17 04:17:19;;;;;;;4.60;0.80;;;;;;;2.64;100.00;98189.41;4950422;29;20058;-79
2023/01/17 04:19:46;;;;;;;3.38;0.60;;;;;;;2.48;100.00;98174.81;4969004;28;20551;-79
2023/01/17 04:22:13;;;;;;;5.68;1.15;;;;;;;2.41;100.00;98188.72;4920573;28;20042;-79
2023/01/17 04:24:41;;;;;;;2.05;0.70;;;;;;;2.33;100.00;98186.19;4969090;28;20046;-79
2023/01/17 04:27:13;;;;;;;3.30;0.65;;;;;;;2.28;100.00;98190.53;4965687;28;20051;-79
2023/01/17 04:29:40;;;;;;;4.28;0.80;;;;;;;2.25;100.00;98198.31;4945308;29;20054;-79
2023/01/17 04:32:08;;;;;;;6.50;1.50;;;;;;;2.27;100.00;98207.88;4959579;28;20496;-79
2023/01/17 04:34:36;;;;;;;7.72;1.40;;;;;;;2.31;100.00;98211.31;4947918;28;20042;-79
2023/01/17 04:37:03;;;;;;;5.72;1.40;;;;;;;2.33;100.00;98213.00;4909228;29;20046;-79
2023/01/17 04:39:30;;;;;;;5.22;1.52;;;;;;;2.39;100.00;98216.47;4966837;28;20047;-79
2023/01/17 04:41:57;;;;;;;9.18;1.23;;;;;;;2.41;100.00;98218.16;4965183;28;20058;-79
2023/01/17 04:44:25;;;;;;;6.55;1.20;;;;;;;2.42;100.00;98219.03;4965453;28;20039;-79
2023/01/17 04:46:52;;;;;;;11.27;1.77;;;;;;;2.35;100.00;98210.41;4970263;28;20073;-79
2023/01/17 04:49:20;;;;;;;8.57;1.63;;;;;;;2.29;100.00;98216.50;4934871;28;20047;-79
2023/01/17 04:51:47;;;;;;;8.75;1.77;;;;;;;2.26;100.00;98216.50;4910433;28;20070;-79
2023/01/17 04:54:14;;;;;;;8.00;1.83;;;;;;;2.22;100.00;98220.00;4933604;29;20055;-79
2023/01/17 04:56:42;;;;;;;7.30;1.60;;;;;;;2.20;100.00;98220.91;4936007;29;20054;-79
2023/01/17 04:59:10;;;;;;;5.18;1.73;;;;;;;2.16;100.00;98227.84;4946827;28;20055;-79
2023/01/17 05:01:37;;;;;;;6.68;1.77;;;;;;;2.11;100.00;98227.00;4929811;28;20058;-79
2023/01/17 05:04:04;;;;;;;4.15;1.27;;;;;;;2.07;100.00;98227.88;4933109;28;20051;-79
2023/01/17 05:06:32;;;;;;;8.75;1.60;;;;;;;2.04;100.00;98227.88;4912163;28;20508;-80
2023/01/17 05:09:01;;;;;;;7.22;1.65;;;;;;;2.01;100.00;98235.72;4961843;28;20042;-79
2023/01/17 05:11:28;;;;;;;6.97;1.27;;;;;;;1.97;100.00;98233.97;4927635;28;20047;-80
2023/01/17 05:13:56;;;;;;;4.93;1.08;;;;;;;1.93;100.00;98239.19;4950842;28;20050;-80
2023/01/17 05:16:23;;;;;;;9.02;1.67;;;;;;;1.92;100.00;98253.03;4951060;28;20695;-79
2023/01/17 05:18:55;;;;;;;4.78;1.45;;;;;;;1.90;100.00;98251.31;4951448;28;20046;-79
2023/01/17 05:21:22;;;;;;;6.90;1.30;;;;;;;1.89;100.00;98257.38;4932245;28;20115;-80
2023/01/17 05:23:50;;;;;;;6.00;1.20;;;;;;;1.85;100.00;98259.16;4914663;28;20047;-80
2023/01/17 05:26:17;;;;;;;3.40;1.27;;;;;;;1.83;100.00;98283.38;4944966;28;20043;-80
2023/01/17 05:28:44;;;;;;;6.57;0.90;;;;;;;1.83;100.00;98294.63;4899424;28;20058;-77
2023/01/17 05:31:11;;;;;;;3.40;1.10;;;;;;;1.84;100.00;98298.09;4931225;29;20043;-78
2023/01/17 05:33:39;;;;;;;6.72;1.30;;;;;;;1.84;100.00;98300.69;4960941;28;20049;-80
2023/01/17 05:36:07;;;;;;;3.20;0.80;;;;;;;1.84;100.00;98306.75;4945247;28;20439;-79
2023/01/17 05:38:34;;;;;;;4.80;1.23;;;;;;;1.84;100.00;98306.75;4913283;28;20054;-79
2023/01/17 05:41:03;;;;;;;1.13;0.68;;;;;;;1.85;100.00;98303.28;4936850;28;20058;-79
2023/01/17 05:43:31;;;;;;;7.35;1.30;;;;;;;1.84;100.00;98313.69;4949011;28;20062;-79
2023/01/17 05:45:58;;;;;;;5.05;1.00;;;;;;;1.82;100.00;98313.69;4943814;29;20047;-79
2023/01/17 05:48:25;;;;;;;7.40;1.65;;;;;;;1.79;100.00;98308.47;4945901;29;20043;-79
2023/01/17 05:50:53;;;;;;;7.40;1.55;;;;;;;1.75;100.00;98317.16;4962280;28;20047;-80
2023/01/17 05:53:20;;;;;;;4.85;1.52;;;;;;;1.71;100.00;98315.44;4932912;29;20508;-81
2023/01/17 05:55:48;;;;;;;7.63;2.33;;;;;;;1.69;100.00;98330.16;4912459;28;20042;-81
2023/01/17 05:58:18;;;;;;;3.72;1.48;;;;;;;1.63;100.00;98328.44;4945693;28;20050;-80
2023/01/17 06:00:47;;;;;;;6.30;0.90;;;;;;;1.56;100.00;98337.94;4941199;28;20051;-80
2023/01/17 06:03:15;;;;;;;6.75;1.60;;;;;;;1.52;100.00;98319.78;4953231;28;20055;-80
2023/01/17 06:05:43;;;;;;;3.92;1.05;;;;;;;1.49;100.00;98327.56;4952541;28;20045;-79
2023/01/17 06:08:11;;;;;;;3.58;1.05;;;;;;;1.50;100.00;98321.53;4953578;28;20514;-80
2023/01/17 06:10:38;;;;;;;3.78;1.10;;;;;;;1.50;100.00;98327.56;4903045;28;20058;-78
2023/01/17 06:13:12;;;;;;;10.43;0.98;;;;;;;1.51;100.00;98328.44;4961006;28;20043;-80
2023/01/17 06:15:40;;;;;;;1.55;0.80;;;;;;;1.48;100.00;98326.72;4964672;28;20038;-80
2023/01/17 06:18:10;;;;;;;3.03;1.02;;;;;;;1.45;100.00;98321.50;4948723;28;20085;-78
2023/01/17 06:20:38;;;;;;;5.93;1.20;;;;;;;1.43;100.00;98331.03;4943892;28;20548;-79
2023/01/17 06:23:08;;;;;;;3.67;1.13;;;;;;;1.40;100.00;98332.75;4940036;28;20052;-79
2023/01/17 06:25:44;;;;;;;3.40;1.00;;;;;;;1.39;100.00;98344.03;4909014;28;20132;-79
2023/01/17 06:28:17;;;;;;;2.33;0.90;;;;;;;1.34;100.00;98344.00;4939685;28;20054;-79
2023/01/17 06:30:44;;;;;;;4.85;1.08;;;;;;;1.30;100.00;98353.50;4960185;28;20401;-79
2023/01/17 06:33:12;;;;;;;3.10;0.90;;;;;;;1.27;100.00;98365.66;4923292;28;20053;-79
2023/01/17 06:35:47;;;;;;;5.45;1.10;;;;;;;1.23;100.00;98361.28;4947261;28;20050;-80
2023/01/17 06:38:15;;;;;;;5.07;1.48;;;;;;;1.19;100.00;98372.53;4922385;29;20059;-80
2023/01/17 06:40:42;;;;;;;5.80;1.40;;;;;;;1.16;100.00;98373.41;4942497;28;20055;-80
2023/01/17 06:43:10;;;;;;;8.85;1.52;;;;;;;1.10;100.00;98378.59;4940224;28;20044;-80
2023/01/17 06:45:37;;;;;;;5.22;1.08;;;;;;;1.06;100.00;98380.31;4964907;28;20047;-80
2023/01/17 06:48:05;;;;;;;8.93;0.93;;;;;;;1.02;100.00;98368.22;4938389;28;20047;-81
2023/01/17 06:50:33;;;;;;;6.93;1.30;;;;;;;0.98;100.00;98379.41;4924213;28;20051;-80
2023/01/17 06:53:03;;;;;;;3.33;1.65;;;;;;;0.93;100.00;98383.75;4930225;28;20142;-81
2023/01/17 06:55:32;;;;;;;3.85;1.27;;;;;;;0.85;100.00;98386.31;4942850;28;20050;-80
2023/01/17 06:58:01;;;;;;;6.93;1.20;;;;;;;0.80;100.00;98387.19;4911313;28;20070;-80
2023/01/17 07:00:30;;;;;;;5.70;1.38;;;;;;;0.74;100.00;98394.06;4942842;28;20046;-79
2023/01/17 07:02:57;;;;;;;10.77;1.50;;;;;;;0.69;100.00;98388.00;4934530;28;20051;-80
2023/01/17 07:05:27;;;;;;;9.50;1.45;;;;;;;0.66;100.00;98393.19;4945187;28;20050;-79
2023/01/17 07:07:57;;;;;;;5.72;1.30;;;;;;;0.62;100.00;98399.19;4935090;28;20074;-80
2023/01/17 07:10:24;;;;;;;5.07;1.10;;;;;;;0.61;100.00;98404.41;4940050;28;20058;-80
2023/01/17 07:12:57;;;;;;;5.22;1.70;;;;;;;0.56;100.00;98412.13;4916705;28;20047;-80
2023/01/17 07:15:24;;;;;;;5.90;1.52;;;;;;;0.53;100.00;98418.19;4945000;28;20042;-80
2023/01/17 07:17:52;;;;;;;8.93;1.48;;;;;;;0.49;100.00;98424.22;4947793;28;20054;-80
2023/01/17 07:20:19;;;;;;;2.90;1.10;;;;;;;0.47;100.00;98428.50;4939744;28;20059;-80
2023/01/17 07:22:46;;;;;;;8.68;1.25;;;;;;;0.44;100.00;98425.91;4936305;28;20049;-79
2023/01/17 07:25:14;;;;;;;7.20;1.48;;;;;;;0.43;100.00;98425.91;4941501;28;20054;-80
2023/01/17 07:27:41;;;;;;;6.90;1.88;;;;;;;0.42;100.00;98424.16;4941401;28;20166;-80
2023/01/17 07:30:09;;;;;;;5.47;1.10;;;;;;;0.42;100.00;98431.91;4921626;28;20062;-80
2023/01/17 07:32:37;;;;;;;2.10;1.13;;;;;;;0.41;100.00;98431.06;4928772;28;20054;-79
2023/01/17 07:35:05;;;;;;;8.20;1.40;;;;;;;0.42;100.00;98430.22;4921367;28;20069;-80
2023/01/17 07:37:32;;;;;;;4.85;0.90;;;;;;;0.42;100.00;98429.31;4946522;28;20065;-79
2023/01/17 07:40:01;;;;;;;2.97;1.33;;;;;;;0.38;100.00;98426.75;4936642;28;20345;-79
2023/01/17 07:42:28;;;;;;;3.83;1.50;;;;;;;0.37;100.00;98435.34;4935709;28;20047;-79
2023/01/17 07:44:56;;;;;;;6.97;1.23;;;;;;;0.36;100.00;98444.00;4926815;28;20062;-79
2023/01/17 07:47:23;;;;;;;4.93;1.50;;;;;;;0.37;100.00;98440.53;4966358;28;20054;-79
2023/01/17 07:49:51;;;;;;;3.00;0.98;;;;;;;0.38;100.00;98444.88;4904481;28;20057;-81
2023/01/17 07:52:18;;;;;;;5.90;1.25;;;;;;;0.39;100.00;98446.59;4916850;29;20070;-80
2023/01/17 07:54:45;;;;;;;4.45;1.05;;;;;;;0.41;100.00;98453.53;4915221;29;20058;-79
2023/01/17 07:57:13;;;;;;;3.83;0.90;;;;;;;0.41;100.00;98456.13;4932554;28;20051;-79
2023/01/17 07:59:40;;;;;;;1.30;0.93;;;;;;;0.43;100.00;98454.41;4953636;28;20050;-81
2023/01/17 08:02:16;;;;;;;4.57;0.90;;;;;;;0.47;100.00;98458.72;4928403;28;20050;-78
2023/01/17 08:04:45;;;;;;;2.20;1.00;;;;;;;0.52;100.00;98457.03;4951940;28;20055;-79
2023/01/17 08:07:12;;;;;;;2.10;0.93;;;;;;;0.60;100.00;98470.03;4960703;28;20027;-80
2023/01/17 08:09:42;;;;;;;4.95;1.23;;;;;;;0.69;100.00;98478.72;4947895;28;20397;-80
2023/01/17 08:12:09;;;;;;;4.97;1.45;;;;;;;0.83;100.00;98485.69;4953038;28;20081;-80
2023/01/17 08:14:36;;;;;;;3.15;1.25;;;;;;;0.97;100.00;98486.63;4938731;28;20043;-80
2023/01/17 08:17:13;;;;;;;4.30;0.95;;;;;;;1.09;100.00;98483.19;4919392;28;20043;-81
2023/01/17 08:19:40;;;;;;;10.23;1.15;;;;;;;1.17;100.00;98484.97;4933254;28;20050;-81
2023/01/17 08:22:08;;;;;;;0.80;0.80;;;;;;;1.24;100.00;98482.38;4956696;28;20102;-81
2023/01/17 08:24:38;;;;;;;0.90;0.50;;;;;;;1.31;100.00;98489.31;4932206;29;20051;-81
2023/01/17 08:27:07;;;;;;;5.03;1.00;;;;;;;1.34;100.00;98485.00;4933521;29;20048;-82
2023/01/17 08:29:35;;;;;;;2.28;0.90;;;;;;;1.38;100.00;98491.09;4945284;28;20055;-81
2023/01/17 08:32:03;;;;;;;2.85;1.02;;;;;;;1.44;100.00;98506.66;4942689;28;21822;-82
2023/01/17 08:34:32;;;;;;;1.48;0.70;;;;;;;1.52;100.00;98510.13;4916279;28;20412;-81
2023/01/17 08:37:00;;;;;;;3.03;0.82;;;;;;;1.65;100.00;98528.34;4943584;28;20050;-81
2023/01/17 08:39:28;;;;;;;3.97;1.27;;;;;;;1.74;100.00;98533.56;4931319;28;20063;-81
2023/01/17 08:41:56;;;;;;;3.20;0.73;;;;;;;1.85;100.00;98525.75;4941954;28;20050;-81
2023/01/17 08:44:23;;;;;;;4.93;1.67;;;;;;;1.89;100.00;98536.16;4943903;28;20131;-82
2023/01/17 08:46:51;;;;;;;9.23;1.73;;;;;;;1.89;100.00;98524.88;4927706;28;20039;-84
2023/01/17 08:49:18;;;;;;;5.38;1.02;;;;;;;1.86;100.00;98525.75;4925311;29;20059;-82
2023/01/17 08:51:45;;;;;;;3.58;1.10;;;;;;;1.81;100.00;98519.69;4936158;28;20082;-82
2023/01/17 08:54:14;;;;;;;3.58;1.63;;;;;;;1.74;100.00;98523.16;4961181;28;20051;-82
2023/01/17 08:56:42;;;;;;;2.10;1.20;;;;;;;1.71;100.00;98515.34;4911170;29;20055;-82
2023/01/17 08:59:11;;;;;;;4.65;1.00;;;;;;;1.69;100.00;98527.47;4939962;29;20055;-83
2023/01/17 09:01:44;;;;;;;2.60;1.10;;;;;;;1.69;100.00;98535.25;4929488;28;20055;-82
2023/01/17 09:04:13;;;;;;;1.75;1.10;;;;;;;1.74;100.00;98533.56;4940417;28;20043;-81
2023/01/17 09:06:44;;;;;;;6.72;0.95;;;;;;;1.77;100.00;98528.34;4943413;28;20420;-81
2023/01/17 09:09:17;;;;;;;4.10;0.95;;;;;;;1.77;100.00;98533.53;4948875;28;20058;-82
2023/01/17 09:11:44;;;;;;;;;;;;;;;1.79;100.00;98536.13;4942714;29;20059;-81
2023/01/17 09:14:12;;;;;;;4.20;1.58;;;;;;;1.83;100.00;98536.13;4967330;28;19936;-81
2023/01/17 09:16:40;;;;;;;3.78;0.75;;;;;;;1.92;100.00;98543.94;4961720;28;20438;-81
2023/01/17 09:19:09;;;;;;;0.65;0.65;;;;;;;2.03;100.00;98537.91;4917504;29;20716;-80
2023/01/17 09:21:37;;;;;;;4.13;1.10;;;;;;;2.17;100.00;98543.09;4942957;28;20058;-82
2023/01/17 09:24:05;;;;;;;1.13;0.82;;;;;;;2.29;100.00;98536.16;4946676;29;20489;-82
2023/01/17 09:26:34;;;;;;;6.20;1.30;;;;;;;2.43;100.00;98528.34;4918443;29;20518;-82
2023/01/17 09:29:01;;;;;;;2.25;0.80;;;;;;;2.58;100.00;98531.81;4949813;29;20047;-82
2023/01/17 09:31:29;;;;;;;4.43;1.40;;;;;;;2.73;100.00;98523.97;4944884;29;20043;-81
2023/01/17 09:33:57;;;;;;;2.53;0.98;;;;;;;2.82;100.00;98528.28;4895671;28;20433;-81
2023/01/17 09:36:27;;;;;;;6.55;0.98;;;;;;;2.86;100.00;98527.41;4932344;29;20035;-80
2023/01/17 09:38:56;;;;;;;3.25;0.95;;;;;;;2.85;100.00;98528.25;4936153;29;20397;-80
2023/01/17 09:41:50;;;;;;;4.20;1.23;;;;;;;2.83;100.00;98524.78;4917748;29;20055;-82
2023/01/17 09:44:24;;;;;;;3.38;1.00;;;;;;;2.76;100.00;98538.69;4949602;29;20042;-80
2023/01/17 09:46:57;;;;;;;3.40;0.98;;;;;;;2.70;100.00;98545.66;4940217;28;20047;-82
2023/01/17 09:49:34;;;;;;;2.80;0.90;;;;;;;2.65;100.00;98541.31;4929537;29;20063;-82
2023/01/17 09:52:03;;;;;;;7.07;1.38;;;;;;;2.66;100.00;98558.63;4883446;28;20066;-82
2023/01/17 09:54:46;;;;;;;3.38;1.10;;;;;;;2.69;100.00;98556.91;4949574;29;20412;-82
2023/01/17 09:57:26;;;;;;;4.68;1.10;;;;;;;2.64;100.00;98566.44;4947509;29;20035;-82
2023/01/17 10:00:15;;;;;;;7.00;1.13;;;;;;;2.65;100.00;98563.00;4943496;29;20063;-81
2023/01/17 10:03:07;;;;;;;3.47;1.15;;;;;;;2.73;100.00;98571.63;4913433;29;20062;-82
2023/01/17 10:05:54;;;;;;;5.50;1.00;;;;;;;2.81;100.00;98573.34;4914935;29;20722;-80
2023/01/17 10:08:21;;;;;;;3.70;0.93;;;;;;;2.84;100.00;98576.81;4941659;28;20027;-81
2023/01/17 10:11:20;;;;;;;1.25;0.68;;;;;;;2.82;100.00;98580.31;4953681;29;20501;-82
2023/01/17 10:14:03;;;;;;;0.57;0.50;;;;;;;2.76;100.00;98582.91;4907537;29;20059;-81
2023/01/17 10:16:30;;;;;;;1.33;0.63;;;;;;;2.79;100.00;98594.16;4932826;29;20055;-82
2023/01/17 10:19:12;;;;;;;0.43;0.43;;;;;;;2.90;100.00;98592.41;4917188;29;20067;-81
2023/01/17 10:22:09;;;;;;;0.40;0.40;;;;;;;3.01;100.00;98581.97;4899562;29;20051;-80
2023/01/17 10:25:11;;;;;;;0.40;0.40;;;;;;;3.16;100.00;98585.38;4918120;29;20052;-80
2023/01/17 10:27:56;;;;;;;0.57;0.57;;;;;;;3.26;100.00;98584.50;4940100;29;20060;-81
2023/01/17 10:30:44;;;;;;;0.30;0.30;;;;;;;3.26;100.00;98579.31;4935483;29;20489;-81
2023/01/17 10:33:21;;;;;;;1.90;0.52;;;;;;;3.26;100.00;98581.91;4899102;29;20437;-81
2023/01/17 10:35:55;;;;;;;3.83;0.50;;;;;;;3.28;100.00;98587.97;4938267;29;20529;-81
2023/01/17 10:38:28;;;;;;;1.52;0.60;;;;;;;3.28;100.00;98590.56;4900179;28;20043;-80
2023/01/17 10:41:01;;;;;;;2.53;0.60;;;;;;;3.21;100.00;98594.06;4934461;29;20515;-81
2023/01/17 10:43:34;;;;;;;0.50;0.50;;;;;;;3.08;100.00;98604.53;4951956;29;20047;-81
2023/01/17 10:46:02;;;;;;;3.00;0.60;;;;;;;2.98;100.00;98594.13;4936299;29;20067;-81
2023/01/17 10:48:32;;;;;;;2.17;0.80;;;;;;;2.91;100.00;98590.66;4939295;28;20505;-81
2023/01/17 10:51:19;;;;;;;4.35;0.75;;;;;;;2.82;100.00;98593.31;4923563;29;20058;-81
2023/01/17 10:53:52;;;;;;;3.08;0.50;;;;;;;2.73;100.00;98594.19;4917482;29;20055;-82
2023/01/17 10:56:24;;;;;;;1.35;0.70;;;;;;;2.62;100.00;98593.31;4932085;29;20048;-82
2023/01/17 10:59:22;;;;;;;2.47;0.60;;;;;;;2.60;100.00;98584.66;4944156;29;20047;-80
2023/01/17 11:01:49;;;;;;;3.65;0.60;;;;;;;2.58;100.00;98589.00;4936160;29;20051;-80
2023/01/17 11:04:29;;;;;;;1.55;0.75;;;;;;;2.53;100.00;98589.88;4904978;29;20066;-80
2023/01/17 11:07:26;;;;;;;1.52;0.68;;;;;;;2.55;100.00;98576.84;4906832;29;20052;-80
2023/01/17 11:09:56;;;;;;;2.40;0.90;;;;;;;2.63;100.00;98580.31;4928703;29;20137;-82
2023/01/17 11:12:43;;;;;;;2.03;0.90;;;;;;;2.68;100.00;98577.72;4931875;29;20047;-82
2023/01/17 11:15:11;;;;;;;4.50;0.80;;;;;;;2.63;100.00;98569.94;4951939;29;20050;-82
2023/01/17 11:17:58;;;;;;;4.30;0.90;;;;;;;2.63;100.00;98569.94;4918083;29;20051;-82
2023/01/17 11:21:08;;;;;;;3.15;0.93;;;;;;;2.63;100.00;98567.31;4928062;29;20522;-82
2023/01/17 11:23:37;;;;;;;0.80;0.63;;;;;;;2.55;100.00;98563.84;4898238;29;20039;-82
2023/01/17 11:26:09;;;;;;;0.82;0.70;;;;;;;2.48;100.00;98551.75;4918803;29;20533;-81
2023/01/17 11:28:38;;;;;;;5.07;0.90;;;;;;;2.43;100.00;98554.34;4949279;28;20039;-80
2023/01/17 11:31:23;;;;;;;0.47;0.45;;;;;;;2.46;100.00;98549.16;4956478;28;20027;-81
2023/01/17 11:34:06;;;;;;;6.63;1.00;;;;;;;2.53;100.00;98556.06;4942814;28;20055;-83
2023/01/17 11:36:34;;;;;;;0.60;0.45;;;;;;;2.61;100.00;98550.88;4942257;28;20056;-82
2023/01/17 11:39:20;;;;;;;1.35;0.68;;;;;;;2.67;100.00;98545.66;4882342;29;20059;-83
2023/01/17 11:41:49;;;;;;;4.40;1.00;;;;;;;2.79;100.00;98538.69;4936251;28;20047;-83
2023/01/17 11:44:31;;;;;;;1.58;0.70;;;;;;;2.91;100.00;98543.84;4877619;29;20522;-82
2023/01/17 11:47:18;;;;;;;1.92;0.80;;;;;;;3.06;100.00;98542.94;4956117;29;20054;-80
2023/01/17 11:49:47;;;;;;;4.45;0.90;;;;;;;3.18;100.00;98547.25;4937714;28;20064;-82
2023/01/17 11:52:32;;;;;;;5.03;0.90;;;;;;;3.30;100.00;98544.56;4936248;28;20417;-82
2023/01/17 11:55:00;;;;;;;2.20;0.70;;;;;;;3.35;100.00;98542.81;4917849;28;20729;-81
2023/01/17 11:57:49;;;;;;;6.03;1.00;;;;;;;3.47;100.00;98540.16;4918159;29;20504;-82
2023/01/17 12:00:22;;;;;;;0.60;0.60;;;;;;;3.54;100.00;98541.00;4933997;29;20051;-81
2023/01/17 12:03:28;;;;;;;3.22;0.80;;;;;;;3.53;100.00;98554.00;4907798;29;20616;-82
2023/01/17 12:06:07;;;;;;;1.00;0.90;;;;;;;3.45;100.00;98556.66;4950757;28;20055;-82
2023/01/17 12:08:53;;;;;;;1.67;0.80;;;;;;;3.43;100.00;98542.78;4940020;28;20035;-82
2023/01/17 12:11:29;;;;;;;5.97;1.05;;;;;;;3.47;100.00;98555.78;4904127;29;20040;-81
2023/01/17 12:14:22;;;;;;;1.23;1.00;;;;;;;3.45;100.00;98541.03;4936201;29;20058;-81
2023/01/17 12:17:14;;;;;;;2.88;0.70;;;;;;;3.45;100.00;98541.88;4927635;29;20051;-81
2023/01/17 12:20:03;;;;;;;1.35;1.25;;;;;;;3.49;100.00;98553.16;4928823;29;20051;-81
2023/01/17 12:22:42;;;;;;;5.30;1.05;;;;;;;3.56;100.00;98547.06;4940535;28;20044;-81
2023/01/17 12:25:31;;;;;;;3.88;0.90;;;;;;;3.60;100.00;98553.97;4905883;29;20055;-81
2023/01/17 12:28:17;;;;;;;3.33;1.00;;;;;;;3.62;100.00;98547.00;4916337;28;20063;-82
2023/01/17 12:31:12;;;;;;;5.15;1.10;;;;;;;3.61;100.00;98553.09;4940478;28;20056;-81
2023/01/17 12:34:17;;;;;;;2.38;1.00;;;;;;;3.61;100.00;98547.00;4929891;28;20063;-80
2023/01/17 12:36:51;;;;;;;6.00;1.10;;;;;;;3.64;100.00;98547.00;4944359;28;20062;-82
2023/01/17 12:39:24;;;;;;;3.75;1.23;;;;;;;3.66;100.00;98545.25;4931185;28;20386;-82
2023/01/17 12:42:12;;;;;;;4.38;1.42;;;;;;;3.64;100.00;98549.63;4908507;28;20055;-81
2023/01/17 12:44:58;;;;;;;5.70;1.00;;;;;;;3.62;100.00;98549.63;4919844;29;20051;-81
2023/01/17 12:47:26;;;;;;;1.10;0.90;;;;;;;3.62;100.00;98546.16;4954348;29;20039;-82
2023/01/17 12:50:03;;;;;;;1.45;0.88;;;;;;;3.65;100.00;98553.97;4887687;29;20063;-81
2023/01/17 12:52:58;;;;;;;4.43;1.00;;;;;;;3.67;100.00;98557.41;4920235;28;20059;-82
2023/01/17 12:55:53;;;;;;;2.05;0.90;;;;;;;3.71;100.00;98553.91;4886849;28;20047;-82
2023/01/17 12:58:28;;;;;;;2.70;0.82;;;;;;;3.75;100.00;98552.16;4935310;29;20044;-81
2023/01/17 13:01:03;;;;;;;3.80;1.20;;;;;;;3.79;100.00;98548.66;4919693;28;20048;-81
2023/01/17 13:03:46;;;;;;;3.70;1.00;;;;;;;3.80;100.00;98559.06;4941849;28;20105;-80
2023/01/17 13:06:39;;;;;;;3.40;0.98;;;;;;;3.78;100.00;98557.34;4944912;28;20047;-81
2023/01/17 13:09:12;;;;;;;3.17;1.10;;;;;;;3.80;100.00;98563.41;4931798;28;20052;-81
2023/01/17 13:11:48;;;;;;;4.28;1.17;;;;;;;3.77;100.00;98551.28;4906508;29;20055;-80
2023/01/17 13:14:16;;;;;;;3.35;1.15;;;;;;;3.77;100.00;98560.84;4939599;29;20059;-81
2023/01/17 13:16:53;;;;;;;6.82;1.20;;;;;;;3.79;100.00;98559.09;4920813;29;20062;-81
2023/01/17 13:19:47;;;;;;;3.05;1.30;;;;;;;3.73;100.00;98559.97;4928591;28;20046;-81